Indianapolis, IN

03:32 AM EST die 04o March, anno 2015 (GMT -0500)
Indianapolis Terry | Change Station
CLOSE
Current Station
Airport
Location: Indianapolis,
Elevation: 922 ft
Nearby Weather Stations

Elev 922 ft 40.03 °N, 86.25 °W | Updated 17 minutes ago

Aequaliter Nubila
Aequaliter Nubila
33 °F
Feels Like 30 °F
N
4
Ventus Variabilis Ventus from Inter Aquilonem et Zephyrus

Hodie
High -- | Low -- °F
--% Chance of Precip.
Yesterday
High -- | Low -- °F
Precip. -- in
7:13 AM 6:39 PM
Waxing Gibbous, 98% visible
Pressio 29.89 in
Visibilitas 7.0 milia passuum
Clouds Plerumque Nubila 900 ft
Aequaliter Nubila 1300 ft
Frigus Venti 30 °F
Frigus in quo Ros apparet 30 °F
Umor 87%
Rainfall 0.00 in
Snow Depth Not available.
UV 0 out of 12
Pollen .70 out of 12
Air Quality Not available.
Flu Activity Not available.
METAR KTYQ 040815Z AUTO 31003KT 7SM BKN009 OVC013 01/M01 A2989 RMK AO2 T00081012

More Conditions Fewer Conditions

Pressio 29.89 in
Visibilitas 7.0 milia passuum
Clouds Plerumque Nubila 900 ft
Aequaliter Nubila 1300 ft
Frigus Venti 30 °F
Frigus in quo Ros apparet 30 °F
Umor 87%
Rainfall 0.00 in
Snow Depth Not available.
UV 0 out of 12
Pollen .70 out of 12
Air Quality Not available.
Flu Activity Not available.
METAR KTYQ 040815Z AUTO 31003KT 7SM BKN009 OVC013 01/M01 A2989 RMK AO2 T00081012

More Conditions Fewer Conditions

10-Day Weather Forecast

Almanac

Astronomy

Mar. 04, 2015 Rise Set
Actual Time
Civil Twilight
Nautical Twilight
Astronomical Twilight
Moon
Length Of Visible Light
Length of Day
Tomorrow will be .
, % of the Moon is Illuminated

Today's Extremes

State Highs State Lows

Community

WunderPhotos

Upload Photos

1,802,416 photos uploaded!

WunderBlogs® & News

Nearby

Air Quality

  Air Quality AQ Index Pollutant
Not available.

Snow Depth

Station Depth Elevation

Earthquake Activity

City Distance Mag. Time & Date
Minimum magnitude displayed is 2.5.

Coastal Water Temperatures

Locus Calor

Nearby Weather Stations